Montevideo, Brazil
Current Conditions -  °F | °C
As of 9:00 PM on Friday 21 Nov 2014 (Local Time) from SBJU Reporting Station
Scattered Clouds Scattered Clouds  
Wind Chill: 88°   Ceiling: Unl
Heat Index: 96°   Visibility: 6mi
Dew Point: 73°   Wind: 2mph
Humidity: 62%   Direction: 170°S
Pressure: 29.97"   Gusts: NA
Location:  7.36°S, 38.42°W
Report Text: SBJU 220000Z 17002KT 9999 SCT020 31/23 Q1015
Loading
Personal Weather Stations






























Interactive Weather Map New forecast layout! Learn more

10-Day Weather Forecast

Advertisements
Track Severe Weather on mobile